createdAt,value
2022-11-16T00:00:44.930Z,8.79
2022-11-16T00:01:34.942Z,8.79
2022-11-16T00:02:24.944Z,8.78
2022-11-16T00:03:14.891Z,8.79
2022-11-16T00:04:04.911Z,8.79
2022-11-16T00:04:54.880Z,8.79
2022-11-16T00:05:44.862Z,8.78
2022-11-16T00:06:34.859Z,8.78
2022-11-16T00:07:24.900Z,8.78
2022-11-16T00:08:14.830Z,8.76
2022-11-16T00:09:04.871Z,8.76
2022-11-16T00:09:54.827Z,8.78
2022-11-16T00:10:44.812Z,8.78
2022-11-16T00:11:34.812Z,8.78
2022-11-16T00:12:24.805Z,8.78
2022-11-16T00:13:14.827Z,8.78
2022-11-16T00:14:04.789Z,8.79
2022-11-16T00:14:54.789Z,8.78
2022-11-16T00:15:44.761Z,8.79
2022-11-16T00:16:34.739Z,8.79
2022-11-16T00:17:24.751Z,8.79
2022-11-16T00:18:14.739Z,8.79
2022-11-16T00:19:04.940Z,8.79
2022-11-16T00:19:54.720Z,8.80
2022-11-16T00:20:44.695Z,8.79
2022-11-16T00:21:34.684Z,8.79
2022-11-16T00:22:24.733Z,8.79
2022-11-16T00:23:14.674Z,8.80
2022-11-16T00:24:04.673Z,8.80
2022-11-16T00:24:54.875Z,8.80
2022-11-16T00:25:44.667Z,8.80
2022-11-16T00:26:34.639Z,8.80
2022-11-16T00:27:24.650Z,8.79
2022-11-16T00:28:14.620Z,8.80
2022-11-16T00:29:04.607Z,8.80
2022-11-16T00:29:54.597Z,8.80
2022-11-16T00:30:44.606Z,8.80
2022-11-16T00:31:34.587Z,8.82
2022-11-16T00:32:24.579Z,8.80
2022-11-16T00:33:14.596Z,8.80
2022-11-16T00:34:04.576Z,8.80
2022-11-16T00:34:54.535Z,8.79
2022-11-16T00:35:44.542Z,8.82
2022-11-16T00:36:34.545Z,8.80
2022-11-16T00:37:24.505Z,8.80
2022-11-16T00:38:14.507Z,8.80
2022-11-16T00:39:04.501Z,8.82
2022-11-16T00:39:54.475Z,8.79
2022-11-16T00:40:44.488Z,8.80
2022-11-16T00:41:34.474Z,8.80
2022-11-16T00:42:24.717Z,8.79
2022-11-16T00:43:14.442Z,8.80
2022-11-16T00:44:04.449Z,8.82
2022-11-16T00:44:54.417Z,8.83
2022-11-16T00:45:44.434Z,8.83
2022-11-16T00:46:34.394Z,8.82
2022-11-16T00:47:24.404Z,8.83
2022-11-16T00:48:14.424Z,8.80
2022-11-16T00:49:04.376Z,8.79
2022-11-16T00:49:54.394Z,8.79
2022-11-16T00:50:44.383Z,8.79
2022-11-16T00:51:34.362Z,8.79
2022-11-16T00:52:24.334Z,8.80
2022-11-16T00:53:14.333Z,8.80
2022-11-16T00:54:07.360Z,8.80
2022-11-16T00:54:54.321Z,8.83
2022-11-16T00:55:44.311Z,8.82
2022-11-16T00:56:34.308Z,8.82
2022-11-16T00:57:24.295Z,8.82
2022-11-16T00:58:14.265Z,8.82
2022-11-16T00:59:04.273Z,8.82
2022-11-16T00:59:54.282Z,8.82
2022-11-16T01:00:44.235Z,8.80
2022-11-16T01:01:34.387Z,8.79
2022-11-16T01:02:24.228Z,8.79
2022-11-16T01:03:14.223Z,8.80
2022-11-16T01:04:04.231Z,8.82
2022-11-16T01:04:54.192Z,8.82
2022-11-16T01:05:44.210Z,8.80
2022-11-16T01:06:34.194Z,8.80
2022-11-16T01:07:24.208Z,8.82
2022-11-16T01:08:14.182Z,8.80
2022-11-16T01:09:04.159Z,8.80
2022-11-16T01:09:54.638Z,8.80
2022-11-16T01:10:44.132Z,8.82
2022-11-16T01:11:34.143Z,8.80
2022-11-16T01:12:24.119Z,8.80
2022-11-16T01:13:14.123Z,8.80
2022-11-16T01:14:04.110Z,8.80
2022-11-16T01:14:54.081Z,8.82
2022-11-16T01:15:44.111Z,8.82
2022-11-16T01:16:34.091Z,8.82
2022-11-16T01:17:24.051Z,8.82
2022-11-16T01:18:14.050Z,8.82
2022-11-16T01:19:04.044Z,8.83
2022-11-16T01:19:54.025Z,8.83
2022-11-16T01:20:44.021Z,8.80
2022-11-16T01:21:34.278Z,8.83
2022-11-16T01:22:23.996Z,8.82
2022-11-16T01:23:13.996Z,8.85
2022-11-16T01:24:03.997Z,8.83
2022-11-16T01:24:53.989Z,8.82
2022-11-16T01:25:43.973Z,8.82
2022-11-16T01:26:33.958Z,8.82
2022-11-16T01:27:23.988Z,8.82
2022-11-16T01:28:14.201Z,8.79
2022-11-16T01:29:03.929Z,8.78
2022-11-16T01:29:53.910Z,8.78
2022-11-16T01:30:43.931Z,8.78
2022-11-16T01:31:33.909Z,8.76
2022-11-16T01:32:23.888Z,8.76
2022-11-16T01:33:13.889Z,8.75
2022-11-16T01:34:03.886Z,8.75
2022-11-16T01:34:53.857Z,8.76
2022-11-16T01:35:44.110Z,8.76
2022-11-16T01:36:33.846Z,8.78
2022-11-16T01:37:23.827Z,8.78
2022-11-16T01:38:13.839Z,8.78
2022-11-16T01:39:03.837Z,8.79
2022-11-16T01:39:53.817Z,8.79
2022-11-16T01:40:43.837Z,8.80
2022-11-16T01:41:33.807Z,8.82
2022-11-16T01:42:23.781Z,8.80
2022-11-16T01:43:13.791Z,8.80
2022-11-16T01:44:03.751Z,8.80
2022-11-16T01:44:53.763Z,8.82
2022-11-16T01:45:43.738Z,8.83
2022-11-16T01:46:33.745Z,8.83
2022-11-16T01:47:23.727Z,8.85
2022-11-16T01:48:13.770Z,8.86
2022-11-16T01:49:03.700Z,8.86
2022-11-16T01:49:53.685Z,8.85
2022-11-16T01:50:43.725Z,8.86
2022-11-16T01:51:33.679Z,8.88
2022-11-16T01:52:23.657Z,8.86
2022-11-16T01:53:13.657Z,8.86
2022-11-16T01:54:03.640Z,8.88
2022-11-16T01:54:53.635Z,8.88
2022-11-16T01:55:43.646Z,8.88
2022-11-16T01:56:33.642Z,8.86
2022-11-16T01:57:23.613Z,8.86
2022-11-16T01:58:13.614Z,8.85
2022-11-16T01:59:03.584Z,8.86
2022-11-16T01:59:53.647Z,8.86
2022-11-16T02:00:43.627Z,8.88
2022-11-16T02:01:33.606Z,8.88
2022-11-16T02:02:23.548Z,8.89
2022-11-16T02:03:13.545Z,8.89
2022-11-16T02:04:03.535Z,8.89
2022-11-16T02:04:53.541Z,8.86
2022-11-16T02:05:43.571Z,8.88
2022-11-16T02:06:33.528Z,8.89
2022-11-16T02:07:23.608Z,8.88
2022-11-16T02:08:13.493Z,8.89
2022-11-16T02:09:03.498Z,8.89
2022-11-16T02:09:53.463Z,8.91
2022-11-16T02:10:43.481Z,8.89
2022-11-16T02:11:33.962Z,8.86
2022-11-16T02:12:23.434Z,8.85
2022-11-16T02:13:13.442Z,8.79
2022-11-16T02:14:03.412Z,8.78
2022-11-16T02:14:53.423Z,8.75
2022-11-16T02:15:43.412Z,8.71
2022-11-16T02:16:33.405Z,8.70
2022-11-16T02:17:23.425Z,8.73
2022-11-16T02:18:13.375Z,8.71
2022-11-16T02:19:03.378Z,8.71
2022-11-16T02:19:53.372Z,8.73
2022-11-16T02:20:43.341Z,8.75
2022-11-16T02:21:33.361Z,8.73
2022-11-16T02:22:23.340Z,8.75
2022-11-16T02:23:13.432Z,8.75
2022-11-16T02:24:03.300Z,8.76
2022-11-16T02:24:53.296Z,8.76
2022-11-16T02:25:43.291Z,8.79
2022-11-16T02:26:33.273Z,8.80
2022-11-16T02:27:23.276Z,8.79
2022-11-16T02:28:13.281Z,8.82
2022-11-16T02:29:03.267Z,8.82
2022-11-16T02:29:53.254Z,8.83
2022-11-16T02:30:43.234Z,8.82
2022-11-16T02:31:33.267Z,8.82
2022-11-16T02:32:23.223Z,8.83
2022-11-16T02:33:13.230Z,8.83
2022-11-16T02:34:03.196Z,8.82
2022-11-16T02:34:53.193Z,8.83
2022-11-16T02:35:43.170Z,8.83
2022-11-16T02:36:33.161Z,8.85
2022-11-16T02:37:23.198Z,8.80
2022-11-16T02:38:13.399Z,8.82
2022-11-16T02:39:03.148Z,8.80
2022-11-16T02:39:53.120Z,8.82
2022-11-16T02:40:43.129Z,8.80
2022-11-16T02:41:33.119Z,8.80
2022-11-16T02:42:23.088Z,8.80
2022-11-16T02:43:13.119Z,8.79
2022-11-16T02:44:03.318Z,8.80
2022-11-16T02:44:53.070Z,8.80
2022-11-16T02:45:43.073Z,8.82
2022-11-16T02:46:33.055Z,8.80
2022-11-16T02:47:23.047Z,8.80
2022-11-16T02:48:13.036Z,8.80
2022-11-16T02:49:03.076Z,8.79
2022-11-16T02:49:53.026Z,8.79
2022-11-16T02:50:43.246Z,8.79
2022-11-16T02:51:33.006Z,8.79
2022-11-16T02:52:22.977Z,8.79
2022-11-16T02:53:12.984Z,8.78
2022-11-16T02:54:02.966Z,8.76
2022-11-16T02:54:52.956Z,8.78
2022-11-16T02:55:42.947Z,8.76
2022-11-16T02:56:32.956Z,8.76
2022-11-16T02:57:22.944Z,8.78
2022-11-16T02:58:12.930Z,8.75
2022-11-16T02:59:02.905Z,8.76
2022-11-16T02:59:53.137Z,8.78
2022-11-16T03:00:42.959Z,8.79
2022-11-16T03:01:32.913Z,8.79
2022-11-16T03:02:22.895Z,8.78
2022-11-16T03:03:12.874Z,8.79
2022-11-16T03:04:02.846Z,8.80
2022-11-16T03:04:52.886Z,8.80
2022-11-16T03:05:42.854Z,8.80
2022-11-16T03:06:32.826Z,8.80
2022-11-16T03:07:22.864Z,8.80
2022-11-16T03:08:12.814Z,8.79
2022-11-16T03:09:02.817Z,8.80
2022-11-16T03:09:52.787Z,8.82
2022-11-16T03:10:42.809Z,8.82
2022-11-16T03:11:32.786Z,8.83
2022-11-16T03:12:22.754Z,8.83
2022-11-16T03:13:12.753Z,8.86
2022-11-16T03:14:02.766Z,8.86
2022-11-16T03:14:52.744Z,8.86
2022-11-16T03:15:42.716Z,8.86
2022-11-16T03:16:32.760Z,8.86
2022-11-16T03:17:22.718Z,8.85
2022-11-16T03:18:12.714Z,8.85
2022-11-16T03:19:02.683Z,8.85
2022-11-16T03:19:52.693Z,8.83
2022-11-16T03:20:42.672Z,8.85
2022-11-16T03:21:32.654Z,8.83
2022-11-16T03:22:22.695Z,8.83
2022-11-16T03:23:12.651Z,8.83
2022-11-16T03:24:02.639Z,8.85
2022-11-16T03:24:52.615Z,8.86
2022-11-16T03:25:42.622Z,8.86
2022-11-16T03:26:32.601Z,8.89
2022-11-16T03:27:22.584Z,8.91
2022-11-16T03:28:12.676Z,8.88
2022-11-16T03:29:02.573Z,8.89
2022-11-16T03:29:52.562Z,8.89
2022-11-16T03:30:42.572Z,8.89
2022-11-16T03:31:32.546Z,8.93
2022-11-16T03:32:22.540Z,8.93
2022-11-16T03:33:12.528Z,8.94
2022-11-16T03:34:02.763Z,8.94
2022-11-16T03:34:52.513Z,8.94
2022-11-16T03:35:42.513Z,8.96
2022-11-16T03:36:32.525Z,8.96
2022-11-16T03:37:22.482Z,8.96
2022-11-16T03:38:12.478Z,8.96
2022-11-16T03:39:02.472Z,8.96
2022-11-16T03:39:52.507Z,8.96
2022-11-16T03:40:42.431Z,8.97
2022-11-16T03:41:32.441Z,9.03
2022-11-16T03:42:22.420Z,9.04
2022-11-16T03:43:12.426Z,9.10
2022-11-16T03:44:02.423Z,9.19
2022-11-16T03:44:52.390Z,9.32
2022-11-16T03:45:42.601Z,9.38
2022-11-16T03:46:32.387Z,9.44
2022-11-16T03:47:22.371Z,9.52
2022-11-16T03:48:12.352Z,9.62
2022-11-16T03:49:02.356Z,9.67
2022-11-16T03:49:52.358Z,9.73
2022-11-16T03:50:42.320Z,9.73
2022-11-16T03:51:32.341Z,9.73
2022-11-16T03:52:22.310Z,9.73
2022-11-16T03:53:12.299Z,9.71
2022-11-16T03:54:02.306Z,9.74
2022-11-16T03:54:52.290Z,9.74
2022-11-16T03:55:47.004Z,9.75
2022-11-16T03:56:33.302Z,9.74
2022-11-16T03:57:22.270Z,9.74
2022-11-16T03:58:12.258Z,9.74
2022-11-16T03:59:02.238Z,9.74
2022-11-16T03:59:52.234Z,9.74
2022-11-16T04:00:42.245Z,9.75
2022-11-16T04:01:32.217Z,9.75
2022-11-16T04:02:22.455Z,9.75
2022-11-16T04:03:12.199Z,9.78
2022-11-16T04:04:02.254Z,9.77
2022-11-16T04:04:52.167Z,9.78
2022-11-16T04:05:42.201Z,9.77
2022-11-16T04:06:32.167Z,9.77
2022-11-16T04:07:22.179Z,9.75
2022-11-16T04:08:12.156Z,9.78
2022-11-16T04:09:02.147Z,9.77
2022-11-16T04:09:52.127Z,9.78
2022-11-16T04:10:42.115Z,9.80
2022-11-16T04:11:32.086Z,9.80
2022-11-16T04:12:22.085Z,9.81
2022-11-16T04:13:12.086Z,9.83
2022-11-16T04:14:06.542Z,9.85
2022-11-16T04:14:53.294Z,9.86
2022-11-16T04:15:42.035Z,9.86
2022-11-16T04:16:32.036Z,9.86
2022-11-16T04:17:22.038Z,9.86
2022-11-16T04:18:12.041Z,9.88
2022-11-16T04:19:02.017Z,9.89
2022-11-16T04:19:57.786Z,9.89
2022-11-16T04:20:42.996Z,9.91
2022-11-16T04:21:31.977Z,9.93
2022-11-16T04:22:21.987Z,9.93
2022-11-16T04:23:11.958Z,9.91
2022-11-16T04:24:01.966Z,9.91
2022-11-16T04:24:51.953Z,9.89
2022-11-16T04:25:42.275Z,9.92
2022-11-16T04:26:31.942Z,9.91
2022-11-16T04:27:21.914Z,9.92
2022-11-16T04:28:11.923Z,9.93
2022-11-16T04:29:01.900Z,9.92
2022-11-16T04:29:51.895Z,9.92
2022-11-16T04:30:41.890Z,9.95
2022-11-16T04:31:31.898Z,9.95
2022-11-16T04:32:21.863Z,9.96
2022-11-16T04:33:11.844Z,9.96
2022-11-16T04:34:01.848Z,9.98
2022-11-16T04:34:51.843Z,9.99
2022-11-16T04:35:41.824Z,9.99
2022-11-16T04:36:31.806Z,10.01
2022-11-16T04:37:22.116Z,10.02
2022-11-16T04:38:11.794Z,10.02
2022-11-16T04:39:01.800Z,10.04
2022-11-16T04:39:51.783Z,10.04
2022-11-16T04:40:41.764Z,10.07
2022-11-16T04:41:31.758Z,10.06
2022-11-16T04:42:21.779Z,10.07
2022-11-16T04:43:11.784Z,10.09
2022-11-16T04:44:01.723Z,10.07
2022-11-16T04:44:51.713Z,10.09
2022-11-16T04:45:41.743Z,10.09
2022-11-16T04:46:31.690Z,10.09
2022-11-16T04:47:21.708Z,10.07
2022-11-16T04:48:11.672Z,10.07
2022-11-16T04:49:01.885Z,10.04
2022-11-16T04:49:51.665Z,10.06
2022-11-16T04:50:41.651Z,10.07
2022-11-16T04:51:31.632Z,10.07
2022-11-16T04:52:21.631Z,10.06
2022-11-16T04:53:11.649Z,10.06
2022-11-16T04:54:01.622Z,10.02
2022-11-16T04:54:51.693Z,10.04
2022-11-16T04:55:41.608Z,10.06
2022-11-16T04:56:31.581Z,10.07
2022-11-16T04:57:21.582Z,10.06
2022-11-16T04:58:11.561Z,10.06
2022-11-16T04:59:01.571Z,10.06
2022-11-16T04:59:51.581Z,10.09
2022-11-16T05:00:41.609Z,10.07
2022-11-16T05:01:31.581Z,10.07
2022-11-16T05:02:21.531Z,10.09
2022-11-16T05:03:11.509Z,10.09
2022-11-16T05:04:01.510Z,10.09
2022-11-16T05:04:51.501Z,10.07
2022-11-16T05:05:41.504Z,10.06
2022-11-16T05:06:31.500Z,10.04
2022-11-16T05:07:21.572Z,10.04
2022-11-16T05:08:11.473Z,10.06
2022-11-16T05:09:01.461Z,10.04
2022-11-16T05:09:51.435Z,10.04
2022-11-16T05:10:41.442Z,10.06
2022-11-16T05:11:31.440Z,10.09
2022-11-16T05:12:21.411Z,10.10
2022-11-16T05:13:11.427Z,10.11
2022-11-16T05:14:01.401Z,10.07
2022-11-16T05:14:51.374Z,10.09
2022-11-16T05:15:41.399Z,10.09
2022-11-16T05:16:31.398Z,10.07
2022-11-16T05:17:21.360Z,10.09
2022-11-16T05:18:11.330Z,10.10
2022-11-16T05:19:01.379Z,10.10
2022-11-16T05:19:51.337Z,10.10
2022-11-16T05:20:41.345Z,10.11
2022-11-16T05:21:31.306Z,10.11
2022-11-16T05:22:21.289Z,10.11
2022-11-16T05:23:11.280Z,10.10
2022-11-16T05:24:01.312Z,10.09
2022-11-16T05:24:51.529Z,10.09
2022-11-16T05:25:41.260Z,10.07
2022-11-16T05:26:31.251Z,10.01
2022-11-16T05:27:21.242Z,10.01
2022-11-16T05:28:11.219Z,9.98
2022-11-16T05:29:01.240Z,10.01
2022-11-16T05:29:51.230Z,10.02
2022-11-16T05:30:41.288Z,10.01
2022-11-16T05:31:33.085Z,10.01
2022-11-16T05:32:22.197Z,10.04
2022-11-16T05:33:11.165Z,10.04
2022-11-16T05:34:01.190Z,10.02
2022-11-16T05:34:51.168Z,10.04
2022-11-16T05:35:41.163Z,10.06
2022-11-16T05:36:31.358Z,10.06
2022-11-16T05:37:21.147Z,10.04
2022-11-16T05:38:11.124Z,10.04
2022-11-16T05:39:01.195Z,10.06
2022-11-16T05:39:51.110Z,10.09
2022-11-16T05:40:41.088Z,10.10
2022-11-16T05:41:31.107Z,10.10
2022-11-16T05:42:21.097Z,10.11
2022-11-16T05:43:11.071Z,10.11
2022-11-16T05:44:01.064Z,10.11
2022-11-16T05:44:51.036Z,10.09
2022-11-16T05:45:41.033Z,10.07
2022-11-16T05:46:31.026Z,10.07
2022-11-16T05:47:21.127Z,10.07
2022-11-16T05:48:11.002Z,10.06
2022-11-16T05:49:01.009Z,10.04
2022-11-16T05:49:50.989Z,10.02
2022-11-16T05:50:42.995Z,10.04
2022-11-16T05:51:30.985Z,10.06
2022-11-16T05:52:20.976Z,10.07
2022-11-16T05:53:10.984Z,10.09
2022-11-16T05:54:00.958Z,10.10
2022-11-16T05:54:50.926Z,10.11
2022-11-16T05:55:40.963Z,10.13
2022-11-16T05:56:30.988Z,10.14
2022-11-16T05:57:20.909Z,10.14
2022-11-16T05:58:10.908Z,10.14
2022-11-16T05:59:00.893Z,10.14
2022-11-16T05:59:50.881Z,10.13
2022-11-16T06:00:40.886Z,10.11
2022-11-16T06:01:31.104Z,10.10
2022-11-16T06:02:20.844Z,10.10
2022-11-16T06:03:10.904Z,10.10
2022-11-16T06:04:00.824Z,10.10
2022-11-16T06:04:50.811Z,10.11
2022-11-16T06:05:40.958Z,10.11
2022-11-16T06:06:30.793Z,10.10
2022-11-16T06:07:20.909Z,10.09
2022-11-16T06:08:10.805Z,10.04
2022-11-16T06:09:00.764Z,10.06
2022-11-16T06:09:50.794Z,10.01
2022-11-16T06:10:40.763Z,9.98
2022-11-16T06:11:35.479Z,10.01
2022-11-16T06:12:21.778Z,9.99
2022-11-16T06:13:10.735Z,10.02
2022-11-16T06:14:00.734Z,10.02
2022-11-16T06:14:50.709Z,10.02
2022-11-16T06:15:40.693Z,10.02
2022-11-16T06:16:30.713Z,10.02
2022-11-16T06:17:20.675Z,10.02
2022-11-16T06:18:10.959Z,10.02
2022-11-16T06:19:00.680Z,10.02
2022-11-16T06:19:50.655Z,10.02
2022-11-16T06:20:40.653Z,10.01
2022-11-16T06:21:30.642Z,9.99
2022-11-16T06:22:20.615Z,9.96
2022-11-16T06:23:10.604Z,9.98
2022-11-16T06:24:00.632Z,9.93
2022-11-16T06:24:50.604Z,9.92
2022-11-16T06:25:40.573Z,9.93
2022-11-16T06:26:30.582Z,9.95
2022-11-16T06:27:20.552Z,9.96
2022-11-16T06:28:10.553Z,9.98
2022-11-16T06:29:00.563Z,9.98
2022-11-16T06:29:50.648Z,9.98
2022-11-16T06:30:40.541Z,9.96
2022-11-16T06:31:30.512Z,9.96
2022-11-16T06:32:20.521Z,9.96
2022-11-16T06:33:10.502Z,9.96
2022-11-16T06:34:00.495Z,9.98
2022-11-16T06:34:50.489Z,9.96
2022-11-16T06:35:40.714Z,9.96
2022-11-16T06:36:30.473Z,9.95
2022-11-16T06:37:20.469Z,9.93
2022-11-16T06:38:10.432Z,9.95
2022-11-16T06:39:00.438Z,9.95
2022-11-16T06:39:50.410Z,9.96
2022-11-16T06:40:40.409Z,9.96
2022-11-16T06:41:30.432Z,9.95
2022-11-16T06:42:20.413Z,9.96
2022-11-16T06:43:10.381Z,9.96
2022-11-16T06:44:00.390Z,9.96
2022-11-16T06:44:50.371Z,9.99
2022-11-16T06:45:40.352Z,9.98
2022-11-16T06:46:30.330Z,9.98
2022-11-16T06:47:20.381Z,9.98
2022-11-16T06:48:10.329Z,9.98
2022-11-16T06:49:00.334Z,9.99
2022-11-16T06:49:50.319Z,9.96
2022-11-16T06:50:40.299Z,9.96
2022-11-16T06:51:30.278Z,9.95
2022-11-16T06:52:20.288Z,9.96
2022-11-16T06:53:10.305Z,9.95
2022-11-16T06:54:00.259Z,9.95
2022-11-16T06:54:50.272Z,9.96
2022-11-16T06:55:40.250Z,9.96
2022-11-16T06:56:30.240Z,9.96
2022-11-16T06:57:20.237Z,9.96
2022-11-16T06:58:10.208Z,9.98
2022-11-16T06:59:00.257Z,9.98
2022-11-16T06:59:50.198Z,9.96
2022-11-16T07:00:40.188Z,9.96
2022-11-16T07:01:30.359Z,9.98
2022-11-16T07:02:20.179Z,9.98
2022-11-16T07:03:10.171Z,10.06
2022-11-16T07:04:00.149Z,10.07
2022-11-16T07:04:50.134Z,10.10
2022-11-16T07:05:40.151Z,10.10
2022-11-16T07:06:30.114Z,10.10
2022-11-16T07:07:20.209Z,10.11
2022-11-16T07:08:10.108Z,10.11
2022-11-16T07:09:00.089Z,10.11
2022-11-16T07:09:50.080Z,10.11
2022-11-16T07:10:40.088Z,10.11
2022-11-16T07:11:30.077Z,10.10
2022-11-16T07:12:20.064Z,10.10
2022-11-16T07:13:10.787Z,10.09
2022-11-16T07:14:00.047Z,10.10
2022-11-16T07:14:50.019Z,10.10
2022-11-16T07:15:40.036Z,10.09
2022-11-16T07:16:30.006Z,10.09
2022-11-16T07:17:19.995Z,10.10
2022-11-16T07:18:09.985Z,10.11
2022-11-16T07:19:00.200Z,10.13
2022-11-16T07:19:49.970Z,10.14
2022-11-16T07:20:39.975Z,10.14
2022-11-16T07:21:29.960Z,10.16
2022-11-16T07:22:19.944Z,10.16
2022-11-16T07:23:13.941Z,10.17
2022-11-16T07:23:59.934Z,10.18
2022-11-16T07:24:49.946Z,10.22
2022-11-16T07:25:39.905Z,10.22
2022-11-16T07:26:29.915Z,10.22
2022-11-16T07:27:19.894Z,10.22
2022-11-16T07:28:09.875Z,10.20
2022-11-16T07:28:59.884Z,10.20
2022-11-16T07:29:49.884Z,10.20
2022-11-16T07:30:40.366Z,10.20
2022-11-16T07:31:29.846Z,10.17
2022-11-16T07:32:19.847Z,10.16
2022-11-16T07:33:09.818Z,10.17
2022-11-16T07:33:59.805Z,10.16
2022-11-16T07:34:49.813Z,10.16
2022-11-16T07:35:39.795Z,10.17
2022-11-16T07:36:29.805Z,10.16
2022-11-16T07:37:19.816Z,10.14
2022-11-16T07:38:13.103Z,10.13
2022-11-16T07:39:00.763Z,10.14
2022-11-16T07:39:49.752Z,10.13
2022-11-16T07:40:39.733Z,10.13
2022-11-16T07:41:29.725Z,10.13
2022-11-16T07:42:19.984Z,10.10
2022-11-16T07:43:09.693Z,10.11
2022-11-16T07:43:59.717Z,10.11
2022-11-16T07:44:49.689Z,10.10
2022-11-16T07:45:39.682Z,10.09
2022-11-16T07:46:46.980Z,10.07
2022-11-16T07:47:20.881Z,10.02
2022-11-16T07:48:09.654Z,10.02
2022-11-16T07:48:59.667Z,10.02
2022-11-16T07:49:49.642Z,10.01
2022-11-16T07:50:39.641Z,10.01
2022-11-16T07:51:29.622Z,9.99
2022-11-16T07:52:19.602Z,9.99
2022-11-16T07:53:09.833Z,10.01
2022-11-16T07:53:59.600Z,10.01
2022-11-16T07:54:49.571Z,9.98
2022-11-16T07:55:39.589Z,9.95
2022-11-16T07:56:29.581Z,9.93
2022-11-16T07:57:19.558Z,9.93
2022-11-16T07:58:09.551Z,9.96
2022-11-16T07:58:59.561Z,9.99
2022-11-16T07:59:49.533Z,10.02
2022-11-16T08:00:39.510Z,10.07
2022-11-16T08:01:29.540Z,10.06
2022-11-16T08:02:19.509Z,10.07
2022-11-16T08:03:09.499Z,10.06
2022-11-16T08:03:59.472Z,10.01
2022-11-16T08:04:49.517Z,10.02
2022-11-16T08:05:39.470Z,10.02
2022-11-16T08:06:29.448Z,10.02
2022-11-16T08:07:19.500Z,10.04
2022-11-16T08:08:09.438Z,10.04
2022-11-16T08:08:59.452Z,10.04
2022-11-16T08:09:49.469Z,10.04
2022-11-16T08:10:39.488Z,10.04
2022-11-16T08:11:29.398Z,10.02
2022-11-16T08:12:19.372Z,10.04
2022-11-16T08:13:09.379Z,10.02
2022-11-16T08:13:59.359Z,10.02
2022-11-16T08:14:49.348Z,10.04
2022-11-16T08:15:39.353Z,10.04
2022-11-16T08:16:29.359Z,10.09
2022-11-16T08:17:19.334Z,10.09
2022-11-16T08:18:09.331Z,10.11
2022-11-16T08:18:59.300Z,10.13
2022-11-16T08:19:49.322Z,10.16
2022-11-16T08:20:39.290Z,10.17
2022-11-16T08:21:29.275Z,10.18
2022-11-16T08:22:19.329Z,10.20
2022-11-16T08:23:09.275Z,10.18
2022-11-16T08:23:59.345Z,10.24
2022-11-16T08:24:49.254Z,10.26
2022-11-16T08:25:39.239Z,10.29
2022-11-16T08:26:29.218Z,10.34
2022-11-16T08:27:19.226Z,10.36
2022-11-16T08:28:09.436Z,10.39
2022-11-16T08:28:59.219Z,10.47
2022-11-16T08:29:49.191Z,10.52
2022-11-16T08:30:39.185Z,10.55
2022-11-16T08:31:29.189Z,10.52
2022-11-16T08:32:19.157Z,10.47
2022-11-16T08:33:09.136Z,10.47
2022-11-16T08:33:59.286Z,10.51
2022-11-16T08:34:49.137Z,10.52
2022-11-16T08:35:39.108Z,10.57
2022-11-16T08:36:29.131Z,10.63
2022-11-16T08:37:19.095Z,10.66
2022-11-16T08:38:09.106Z,10.70
2022-11-16T08:38:59.088Z,10.72
2022-11-16T08:39:49.123Z,10.73
2022-11-16T08:40:39.076Z,10.76
2022-11-16T08:41:29.055Z,10.80
2022-11-16T08:42:19.066Z,10.75
2022-11-16T08:43:09.075Z,10.76
2022-11-16T08:43:59.026Z,10.78
2022-11-16T08:44:49.030Z,10.83
2022-11-16T08:45:39.258Z,10.86
2022-11-16T08:46:29.006Z,10.88
2022-11-16T08:47:18.988Z,10.86
2022-11-16T08:48:08.995Z,10.86
2022-11-16T08:48:58.957Z,10.91
2022-11-16T08:49:49.980Z,10.94
2022-11-16T08:51:02.398Z,10.95
2022-11-16T08:51:30.184Z,10.98
2022-11-16T08:52:18.958Z,10.98
2022-11-16T08:53:08.942Z,11.01
2022-11-16T08:53:58.920Z,11.03
2022-11-16T08:54:48.915Z,11.02
2022-11-16T08:55:38.916Z,11.02
2022-11-16T08:56:28.909Z,11.02
2022-11-16T08:57:18.903Z,11.05
2022-11-16T08:58:08.884Z,11.08
2022-11-16T08:58:59.531Z,11.11
2022-11-16T08:59:48.865Z,11.08
2022-11-16T09:00:38.833Z,11.12
2022-11-16T09:01:28.946Z,11.17
2022-11-16T09:02:18.821Z,11.20
2022-11-16T09:03:08.854Z,11.17
2022-11-16T09:03:58.815Z,11.13
2022-11-16T09:04:48.834Z,11.12
2022-11-16T09:05:38.782Z,11.13
2022-11-16T09:06:28.776Z,11.16
2022-11-16T09:07:18.797Z,11.17
2022-11-16T09:08:08.749Z,11.12
2022-11-16T09:08:59.017Z,11.09
2022-11-16T09:09:48.958Z,11.11
2022-11-16T09:10:38.720Z,11.11
2022-11-16T09:11:28.725Z,11.12
2022-11-16T09:12:18.704Z,11.12
2022-11-16T09:13:08.694Z,11.16
2022-11-16T09:13:58.707Z,11.20
2022-11-16T09:14:48.931Z,11.26
2022-11-16T09:15:38.661Z,11.24
2022-11-16T09:16:28.662Z,11.26
2022-11-16T09:17:22.997Z,11.27
2022-11-16T09:18:08.711Z,11.27
2022-11-16T09:18:58.641Z,11.27
2022-11-16T09:19:48.622Z,11.28
2022-11-16T09:20:38.831Z,11.30
2022-11-16T09:21:28.612Z,11.31
2022-11-16T09:22:18.596Z,11.33
2022-11-16T09:23:08.591Z,11.30
2022-11-16T09:23:58.567Z,11.28
2022-11-16T09:24:48.560Z,11.26
2022-11-16T09:25:38.563Z,11.20
2022-11-16T09:26:28.772Z,11.19
2022-11-16T09:27:18.552Z,11.21
2022-11-16T09:28:08.525Z,11.21
2022-11-16T09:28:58.527Z,11.23
2022-11-16T09:29:48.521Z,11.20
2022-11-16T09:30:38.510Z,11.21
2022-11-16T09:31:28.491Z,11.24
2022-11-16T09:32:18.569Z,11.28
2022-11-16T09:33:08.480Z,11.31
2022-11-16T09:33:58.667Z,11.35
2022-11-16T09:34:48.459Z,11.38
2022-11-16T09:35:38.438Z,11.38
2022-11-16T09:36:28.434Z,11.38
2022-11-16T09:37:18.431Z,11.35
2022-11-16T09:38:08.485Z,11.35
2022-11-16T09:39:49.440Z,11.30
2022-11-16T09:40:38.379Z,11.28
2022-11-16T09:41:28.378Z,11.28
2022-11-16T09:42:18.412Z,11.27
2022-11-16T09:43:08.350Z,11.27
2022-11-16T09:43:58.550Z,11.27
2022-11-16T09:44:48.356Z,11.20
2022-11-16T09:45:38.578Z,11.13
2022-11-16T09:46:28.339Z,11.16
2022-11-16T09:47:18.314Z,11.16
2022-11-16T09:48:08.330Z,11.19
2022-11-16T09:48:58.323Z,11.24
2022-11-16T09:49:48.537Z,11.26
2022-11-16T09:50:38.279Z,11.26
2022-11-16T09:51:28.288Z,11.30
2022-11-16T09:52:18.258Z,11.30
2022-11-16T09:53:09.529Z,11.28
2022-11-16T09:53:58.239Z,11.23
2022-11-16T09:54:48.246Z,11.19
2022-11-16T09:55:38.251Z,11.21
2022-11-16T09:56:28.217Z,11.23
2022-11-16T09:57:18.196Z,11.23
2022-11-16T09:58:08.186Z,11.26
2022-11-16T09:58:58.199Z,11.24
2022-11-16T09:59:49.688Z,11.21
2022-11-16T10:00:38.232Z,11.23
2022-11-16T10:01:28.609Z,11.24
2022-11-16T10:02:18.148Z,11.23
2022-11-16T10:03:08.149Z,11.23
2022-11-16T10:03:58.742Z,11.20
2022-11-16T10:04:48.170Z,11.17
2022-11-16T10:05:38.234Z,11.17
2022-11-16T10:06:28.264Z,11.20
2022-11-16T10:07:18.691Z,11.20
2022-11-16T10:08:08.154Z,11.20
2022-11-16T10:08:59.143Z,11.16
2022-11-16T10:09:48.111Z,11.12
2022-11-16T10:10:38.042Z,11.13
2022-11-16T10:11:28.050Z,11.16
2022-11-16T10:12:18.039Z,11.16
2022-11-16T10:13:08.891Z,11.12
2022-11-16T10:14:03.822Z,11.13
2022-11-16T10:14:49.019Z,11.17
2022-11-16T10:15:37.979Z,11.23
2022-11-16T10:16:28.020Z,11.26
2022-11-16T10:17:17.995Z,11.28
2022-11-16T10:18:07.980Z,11.27
2022-11-16T10:18:58.821Z,11.20
2022-11-16T10:19:48.004Z,11.23
2022-11-16T10:20:37.958Z,11.23
2022-11-16T10:21:27.949Z,11.24
2022-11-16T10:22:17.931Z,11.27
2022-11-16T10:23:07.917Z,11.31
2022-11-16T10:23:57.910Z,11.36
2022-11-16T10:24:47.945Z,11.41
2022-11-16T10:25:37.871Z,11.45
2022-11-16T10:26:27.887Z,11.51
2022-11-16T10:27:21.859Z,11.49
2022-11-16T10:28:07.858Z,11.46
2022-11-16T10:28:57.890Z,11.48
2022-11-16T10:29:48.791Z,11.51
2022-11-16T10:30:38.123Z,11.51
2022-11-16T10:31:27.838Z,11.53
2022-11-16T10:32:17.812Z,11.48
2022-11-16T10:33:11.343Z,11.48
2022-11-16T10:33:57.810Z,11.56
2022-11-16T10:34:47.768Z,11.62
2022-11-16T10:35:37.768Z,11.63
2022-11-16T10:36:28.040Z,11.64
2022-11-16T10:37:17.738Z,11.67
2022-11-16T10:38:07.814Z,11.72
2022-11-16T10:38:57.853Z,11.69
2022-11-16T10:39:48.677Z,11.67
2022-11-16T10:40:37.751Z,11.67
2022-11-16T10:41:27.748Z,11.64
2022-11-16T10:42:17.836Z,11.66
2022-11-16T10:43:07.685Z,11.70
2022-11-16T10:43:57.667Z,11.74
2022-11-16T10:44:47.716Z,11.77
2022-11-16T10:45:37.672Z,11.78
2022-11-16T10:46:27.645Z,11.75
2022-11-16T10:47:17.645Z,11.78
2022-11-16T10:48:07.706Z,11.79
2022-11-16T10:48:57.624Z,11.79
2022-11-16T10:49:47.646Z,11.78
2022-11-16T10:50:37.586Z,11.79
2022-11-16T10:51:27.608Z,11.81
2022-11-16T10:52:17.586Z,11.78
2022-11-16T10:53:07.593Z,11.74
2022-11-16T10:53:57.794Z,11.69
2022-11-16T10:54:47.555Z,11.63
2022-11-16T10:55:37.546Z,11.60